KTNU/TNU METAR and TAF weather

Enter ICAO airport designator
Station Type Date Time Source
KTNU METAR 2020/11/27 03:15 UTC NOAA

KTNU 270315Z AUTO 02006KT 5SM BR OVC005 01/01 A3007 RMK A01


Station Type Date Time Source
KTNU Decoded METAR 2020/11/27 03:15 UTC NOAA

Newton Municipal, IA, United States (KTNU) 41-41N 093-01W
Nov 26, 2020 - 10:15 PM EST / 2020.11.27 0315 UTC
Wind: from the NNE (020 degrees) at 7 MPH (6 KT):0
Visibility: 5 mile(s):0
Sky conditions: overcast
Weather: mist
Temperature: 33 F (1 C)
Windchill: 26 F (-3 C):1
Dew Point: 33 F (1 C)
Relative Humidity: 100%
Pressure (altimeter): 30.07 in. Hg (1018 hPa)
ob: KTNU 270315Z AUTO 02006KT 5SM BR OVC005 01/01 A3007 RMK A01
cycle: 3

Station Type Date Time Source
KTNU TAF UTC NOAA

Error!

Example: see airport list